Time;durP1;ratioP1;P1;durP2;ratioP2;P2;SDS_P1;SDS_P2;PMS_P1;PMS_P2;Temp;Humidity;BMP_temperature;BMP_pressure;BME280_temperature;BME280_humidity;BME280_pressure;Samples;Min_cycle;Max_cycle;Signal;HPM_P1;HPM_P2
2023/04/16 00:01:29;;;;;;;13.73;8.75;;;;;;;;;;4971632;28;20030;-64
2023/04/16 00:03:54;;;;;;;13.43;8.53;;;;;;;;;;4970458;28;20070;-65
2023/04/16 00:06:20;;;;;;;13.03;8.73;;;;;;;;;;4969216;28;20098;-68
2023/04/16 00:08:45;;;;;;;14.85;8.88;;;;;;;;;;4971304;28;20514;-65
2023/04/16 00:11:10;;;;;;;14.70;9.17;;;;;;;;;;4969726;28;20389;-66
2023/04/16 00:13:35;;;;;;;13.75;8.15;;;;;;;;;;4961730;28;20023;-65
2023/04/16 00:16:00;;;;;;;14.33;8.53;;;;;;;;;;4969398;28;20026;-65
2023/04/16 00:18:26;;;;;;;12.32;8.55;;;;;;;;;;4971214;28;20028;-68
2023/04/16 00:20:52;;;;;;;12.43;8.38;;;;;;;;;;4969994;28;20030;-64
2023/04/16 00:23:17;;;;;;;12.68;8.65;;;;;;;;;;4963638;28;20058;-65
2023/04/16 00:25:42;;;;;;;11.73;7.78;;;;;;;;;;4965116;28;20058;-68
2023/04/16 00:28:07;;;;;;;13.88;8.27;;;;;;;;;;4968126;28;20066;-65
2023/04/16 00:30:33;;;;;;;13.07;7.87;;;;;;;;;;4963468;28;20023;-66
2023/04/16 00:32:58;;;;;;;13.47;7.87;;;;;;;;;;4970301;28;20346;-65
2023/04/16 00:35:23;;;;;;;14.05;8.60;;;;;;;;;;4964312;28;20038;-67
2023/04/16 00:37:48;;;;;;;13.65;8.05;;;;;;;;;;4965483;28;20027;-71
2023/04/16 00:40:14;;;;;;;12.23;8.02;;;;;;;;;;4972758;28;20022;-66
2023/04/16 00:42:39;;;;;;;13.40;7.63;;;;;;;;;;4971405;28;20062;-68
2023/04/16 00:45:04;;;;;;;12.98;8.02;;;;;;;;;;4974521;28;20490;-70
2023/04/16 00:47:29;;;;;;;11.23;7.93;;;;;;;;;;4973415;28;20030;-70
2023/04/16 00:49:55;;;;;;;12.37;7.97;;;;;;;;;;4976311;28;20035;-66
2023/04/16 00:52:21;;;;;;;13.03;7.60;;;;;;;;;;4974079;28;20058;-66
2023/04/16 00:54:46;;;;;;;;;;;;;;;;;;4972342;28;20414;-69
2023/04/16 00:57:12;;;;;;;11.48;7.57;;;;;;;;;;4963644;28;20311;-65
2023/04/16 00:59:38;;;;;;;12.73;7.15;;;;;;;;;;4966554;28;20066;-66
2023/04/16 01:02:03;;;;;;;12.67;8.03;;;;;;;;;;4965567;28;20042;-65
2023/04/16 01:04:29;;;;;;;11.20;7.32;;;;;;;;;;4973921;28;20027;-65
2023/04/16 01:06:55;;;;;;;12.68;7.43;;;;;;;;;;4965684;28;20019;-64
2023/04/16 01:09:20;;;;;;;12.48;8.05;;;;;;;;;;4968203;28;20034;-65
2023/04/16 01:11:45;;;;;;;12.55;7.32;;;;;;;;;;4971346;28;20026;-66
2023/04/16 01:14:10;;;;;;;12.23;7.15;;;;;;;;;;4973845;28;20042;-66
2023/04/16 01:16:35;;;;;;;11.23;6.95;;;;;;;;;;4977073;28;20448;-66
2023/04/16 01:19:00;;;;;;;10.20;6.45;;;;;;;;;;4981132;28;20026;-65
2023/04/16 01:21:26;;;;;;;13.43;7.20;;;;;;;;;;4974556;28;20065;-67
2023/04/16 01:23:51;;;;;;;12.23;7.35;;;;;;;;;;4963687;28;20031;-73
2023/04/16 01:26:16;;;;;;;10.93;7.57;;;;;;;;;;4969885;28;20031;-66
2023/04/16 01:28:41;;;;;;;11.73;7.28;;;;;;;;;;4982052;28;20092;-67
2023/04/16 01:31:07;;;;;;;11.35;7.30;;;;;;;;;;4975399;28;20022;-64
2023/04/16 01:33:32;;;;;;;11.07;7.10;;;;;;;;;;4979484;28;20042;-66
2023/04/16 01:35:57;;;;;;;12.55;7.78;;;;;;;;;;4968953;28;20026;-66
2023/04/16 01:38:22;;;;;;;10.38;6.70;;;;;;;;;;4966752;28;20018;-66
2023/04/16 01:40:47;;;;;;;11.03;7.17;;;;;;;;;;4975694;28;20073;-68
2023/04/16 01:43:12;;;;;;;13.27;7.57;;;;;;;;;;4965342;28;20548;-66
2023/04/16 01:45:37;;;;;;;12.50;7.13;;;;;;;;;;4971103;28;20037;-70
2023/04/16 01:48:03;;;;;;;10.32;6.90;;;;;;;;;;4970533;28;20024;-66
2023/04/16 01:50:28;;;;;;;10.23;6.87;;;;;;;;;;4976399;28;20502;-67
2023/04/16 01:52:54;;;;;;;12.18;7.18;;;;;;;;;;4963498;28;20395;-68
2023/04/16 01:55:19;;;;;;;9.07;5.93;;;;;;;;;;4974662;28;20019;-66
2023/04/16 01:57:44;;;;;;;11.80;7.33;;;;;;;;;;4970423;28;20153;-70
2023/04/16 02:00:09;;;;;;;12.27;7.18;;;;;;;;;;4980340;28;20539;-64
2023/04/16 02:02:35;;;;;;;11.30;7.03;;;;;;;;;;4975918;28;20154;-66
2023/04/16 02:05:00;;;;;;;9.68;6.80;;;;;;;;;;4977517;28;20030;-69
2023/04/16 02:07:26;;;;;;;11.27;7.30;;;;;;;;;;4969085;28;20058;-66
2023/04/16 02:09:51;;;;;;;10.18;6.38;;;;;;;;;;4993740;28;20462;-65
2023/04/16 02:12:16;;;;;;;12.43;6.55;;;;;;;;;;4970862;28;20023;-67
2023/04/16 02:14:42;;;;;;;11.65;7.60;;;;;;;;;;4974186;28;20027;-67
2023/04/16 02:17:07;;;;;;;10.85;6.55;;;;;;;;;;4963132;28;20027;-66
2023/04/16 02:19:32;;;;;;;10.68;6.60;;;;;;;;;;4970841;28;20061;-71
2023/04/16 02:21:57;;;;;;;10.25;6.78;;;;;;;;;;4970109;28;20014;-67
2023/04/16 02:24:22;;;;;;;11.13;7.18;;;;;;;;;;4972016;28;20035;-69
2023/04/16 02:26:48;;;;;;;10.63;6.50;;;;;;;;;;4971041;28;20116;-66
2023/04/16 02:29:13;;;;;;;12.10;6.50;;;;;;;;;;4972918;28;20023;-67
2023/04/16 02:31:38;;;;;;;10.77;6.30;;;;;;;;;;4973252;28;20029;-65
2023/04/16 02:34:04;;;;;;;12.27;6.72;;;;;;;;;;4971621;28;20126;-65
2023/04/16 02:36:30;;;;;;;11.45;6.57;;;;;;;;;;4968013;28;20794;-66
2023/04/16 02:38:55;;;;;;;10.52;6.15;;;;;;;;;;4972792;28;20030;-68
2023/04/16 02:41:21;;;;;;;10.67;6.50;;;;;;;;;;4973252;28;20015;-68
2023/04/16 02:43:46;;;;;;;10.60;6.90;;;;;;;;;;4971573;28;20486;-65
2023/04/16 02:46:11;;;;;;;10.18;6.57;;;;;;;;;;4970105;28;20138;-66
2023/04/16 02:48:36;;;;;;;12.00;7.40;;;;;;;;;;4969510;28;20562;-66
2023/04/16 02:51:01;;;;;;;10.40;6.97;;;;;;;;;;4970742;28;20030;-65
2023/04/16 02:53:26;;;;;;;12.23;6.88;;;;;;;;;;4971476;28;20427;-68
2023/04/16 02:55:54;;;;;;;12.03;6.90;;;;;;;;;;4971575;28;20708;-66
2023/04/16 02:58:20;;;;;;;12.02;6.65;;;;;;;;;;4971494;28;20513;-65
2023/04/16 03:00:45;;;;;;;12.35;7.57;;;;;;;;;;4971082;28;20431;-66
2023/04/16 03:03:10;;;;;;;12.52;8.10;;;;;;;;;;4986046;28;20029;-65
2023/04/16 03:05:35;;;;;;;13.45;7.85;;;;;;;;;;4970619;28;20498;-65
2023/04/16 03:08:02;;;;;;;11.45;6.40;;;;;;;;;;4970734;28;20018;-66
2023/04/16 03:10:27;;;;;;;11.88;6.75;;;;;;;;;;4970851;28;20049;-69
2023/04/16 03:12:52;;;;;;;11.77;7.40;;;;;;;;;;4971768;28;20101;-65
2023/04/16 03:15:17;;;;;;;10.10;6.27;;;;;;;;;;4970056;28;20019;-68
2023/04/16 03:17:42;;;;;;;14.53;7.20;;;;;;;;;;4968944;28;20520;-65
2023/04/16 03:20:09;;;;;;;12.88;7.45;;;;;;;;;;4969527;28;20478;-66
2023/04/16 03:22:34;;;;;;;11.35;6.60;;;;;;;;;;4970324;28;20222;-65
2023/04/16 03:24:59;;;;;;;11.20;6.60;;;;;;;;;;4969847;28;20030;-70
2023/04/16 03:27:24;;;;;;;11.30;6.63;;;;;;;;;;4969949;28;20057;-65
2023/04/16 03:29:49;;;;;;;13.50;6.60;;;;;;;;;;4969006;28;20023;-74
2023/04/16 03:32:14;;;;;;;10.95;6.60;;;;;;;;;;4963160;28;20419;-68
2023/04/16 03:34:40;;;;;;;11.87;6.47;;;;;;;;;;4970592;28;20402;-66
2023/04/16 03:37:05;;;;;;;11.20;6.53;;;;;;;;;;4968836;28;20044;-64
2023/04/16 03:39:31;;;;;;;10.23;6.60;;;;;;;;;;4962560;28;20023;-65
2023/04/16 03:41:56;;;;;;;12.57;6.45;;;;;;;;;;4974640;28;20026;-67
2023/04/16 03:44:21;;;;;;;13.80;7.60;;;;;;;;;;4973812;28;20039;-71
2023/04/16 03:46:46;;;;;;;14.00;6.38;;;;;;;;;;4967278;28;20042;-67
2023/04/16 03:49:11;;;;;;;10.90;6.10;;;;;;;;;;4969606;28;20018;-65
2023/04/16 03:51:36;;;;;;;9.57;5.80;;;;;;;;;;4969649;28;20620;-66
2023/04/16 03:54:02;;;;;;;11.43;6.32;;;;;;;;;;4964921;28;20387;-68
2023/04/16 03:56:27;;;;;;;9.50;5.85;;;;;;;;;;4969199;28;20037;-70
2023/04/16 03:58:52;;;;;;;10.00;6.10;;;;;;;;;;4971140;28;20376;-66
2023/04/16 04:01:17;;;;;;;10.47;6.27;;;;;;;;;;4970473;28;20093;-64
2023/04/16 04:03:42;;;;;;;12.30;6.78;;;;;;;;;;4970677;28;20022;-66
2023/04/16 04:06:08;;;;;;;11.57;7.13;;;;;;;;;;4969824;28;20019;-64
2023/04/16 04:08:33;;;;;;;11.63;6.57;;;;;;;;;;4969719;28;20062;-64
2023/04/16 04:10:58;;;;;;;10.35;6.20;;;;;;;;;;4971236;28;20023;-70
2023/04/16 04:13:23;;;;;;;13.00;6.25;;;;;;;;;;4968082;28;20026;-64
2023/04/16 04:15:48;;;;;;;11.43;6.83;;;;;;;;;;4958645;28;20031;-66
2023/04/16 04:18:14;;;;;;;11.87;7.63;;;;;;;;;;4969618;28;20026;-65
2023/04/16 04:20:40;;;;;;;12.13;6.67;;;;;;;;;;4972912;28;20042;-66
2023/04/16 04:23:05;;;;;;;10.90;6.63;;;;;;;;;;4968112;28;21009;-67
2023/04/16 04:25:30;;;;;;;15.43;7.23;;;;;;;;;;4973640;28;20039;-66
2023/04/16 04:27:55;;;;;;;13.57;7.45;;;;;;;;;;4974596;28;20042;-67
2023/04/16 04:30:20;;;;;;;10.25;6.40;;;;;;;;;;4970421;28;20089;-70
2023/04/16 04:32:46;;;;;;;9.90;6.20;;;;;;;;;;4971962;28;20031;-66
2023/04/16 04:35:11;;;;;;;11.50;6.20;;;;;;;;;;4973746;28;20054;-68
2023/04/16 04:37:36;;;;;;;12.23;7.32;;;;;;;;;;4974552;28;20027;-66
2023/04/16 04:40:01;;;;;;;12.10;6.53;;;;;;;;;;4975415;28;20491;-68
2023/04/16 04:42:26;;;;;;;9.57;5.63;;;;;;;;;;4966416;28;20023;-66
2023/04/16 04:44:51;;;;;;;10.02;6.32;;;;;;;;;;4973075;28;20038;-70
2023/04/16 04:47:16;;;;;;;10.43;5.63;;;;;;;;;;4967981;28;20447;-67
2023/04/16 04:49:42;;;;;;;9.77;5.75;;;;;;;;;;4982105;28;20105;-71
2023/04/16 04:52:07;;;;;;;10.13;5.90;;;;;;;;;;4977782;28;20034;-65
2023/04/16 04:54:32;;;;;;;9.73;5.93;;;;;;;;;;4969573;28;20031;-66
2023/04/16 04:56:57;;;;;;;10.70;6.28;;;;;;;;;;4965828;28;20380;-68
2023/04/16 04:59:23;;;;;;;11.07;6.53;;;;;;;;;;4967035;28;20033;-67
2023/04/16 05:01:48;;;;;;;10.88;6.00;;;;;;;;;;4973563;28;20031;-65
2023/04/16 05:04:13;;;;;;;10.57;6.30;;;;;;;;;;4974172;28;20106;-69
2023/04/16 05:06:39;;;;;;;10.23;5.93;;;;;;;;;;4970789;28;20027;-64
2023/04/16 05:09:04;;;;;;;10.03;5.73;;;;;;;;;;4973751;28;20442;-67
2023/04/16 05:11:29;;;;;;;12.20;6.97;;;;;;;;;;4973627;28;20447;-67
2023/04/16 05:13:54;;;;;;;11.07;6.10;;;;;;;;;;4963930;28;20490;-67
2023/04/16 05:16:19;;;;;;;11.82;6.63;;;;;;;;;;4978339;28;20547;-68
2023/04/16 05:18:45;;;;;;;12.07;7.38;;;;;;;;;;4972799;28;20463;-65
2023/04/16 05:21:10;;;;;;;11.38;6.20;;;;;;;;;;4967970;28;20027;-66
2023/04/16 05:23:35;;;;;;;10.93;6.32;;;;;;;;;;4960755;28;20022;-66
2023/04/16 05:26:00;;;;;;;10.33;6.13;;;;;;;;;;4971848;28;20501;-65
2023/04/16 05:28:25;;;;;;;10.95;6.38;;;;;;;;;;4971715;28;20503;-65
2023/04/16 05:30:50;;;;;;;10.57;6.50;;;;;;;;;;4973039;28;20022;-69
2023/04/16 05:33:16;;;;;;;10.48;6.03;;;;;;;;;;4969460;28;20023;-69
2023/04/16 05:35:41;;;;;;;10.15;6.30;;;;;;;;;;4972391;28;20047;-67
2023/04/16 05:38:06;;;;;;;11.03;6.13;;;;;;;;;;4968545;28;20039;-67
2023/04/16 05:40:31;;;;;;;10.02;5.63;;;;;;;;;;4965683;28;20037;-66
2023/04/16 05:42:56;;;;;;;10.93;6.43;;;;;;;;;;4972088;28;20030;-66
2023/04/16 05:45:21;;;;;;;10.77;5.90;;;;;;;;;;4972405;28;20115;-69
2023/04/16 05:47:47;;;;;;;10.82;5.72;;;;;;;;;;4965327;28;20054;-67
2023/04/16 05:50:12;;;;;;;9.93;6.40;;;;;;;;;;4969317;28;20102;-65
2023/04/16 05:52:37;;;;;;;10.35;6.40;;;;;;;;;;4972603;28;20057;-70
2023/04/16 05:55:02;;;;;;;10.23;6.23;;;;;;;;;;4967337;28;20025;-66
2023/04/16 05:57:28;;;;;;;11.27;6.80;;;;;;;;;;4973016;28;20583;-65
2023/04/16 05:59:53;;;;;;;10.50;6.40;;;;;;;;;;4968843;28;20929;-64
2023/04/16 06:02:18;;;;;;;11.57;7.10;;;;;;;;;;4968185;28;20027;-66
2023/04/16 06:04:44;;;;;;;11.27;6.13;;;;;;;;;;4958804;28;20344;-65
2023/04/16 06:07:09;;;;;;;12.77;6.67;;;;;;;;;;4972480;28;20017;-64
2023/04/16 06:09:35;;;;;;;11.65;6.97;;;;;;;;;;4965826;28;20038;-67
2023/04/16 06:12:00;;;;;;;12.80;7.38;;;;;;;;;;4974624;28;20053;-64
2023/04/16 06:14:25;;;;;;;13.30;7.57;;;;;;;;;;4969633;28;20023;-65
2023/04/16 06:16:50;;;;;;;10.93;6.50;;;;;;;;;;4970546;28;20502;-73
2023/04/16 06:19:15;;;;;;;12.10;7.28;;;;;;;;;;4965347;28;20479;-66
2023/04/16 06:21:40;;;;;;;10.48;6.40;;;;;;;;;;4960277;28;20030;-67
2023/04/16 06:24:05;;;;;;;12.73;7.37;;;;;;;;;;4970165;28;20042;-64
2023/04/16 06:26:31;;;;;;;10.65;6.40;;;;;;;;;;4962587;28;20034;-69
2023/04/16 06:28:56;;;;;;;12.17;7.47;;;;;;;;;;4967838;28;20026;-66
2023/04/16 06:31:21;;;;;;;12.30;7.07;;;;;;;;;;4963450;28;20034;-66
2023/04/16 06:33:46;;;;;;;10.33;6.50;;;;;;;;;;4968510;28;20034;-64
2023/04/16 06:36:11;;;;;;;10.52;6.45;;;;;;;;;;4970124;28;20465;-66
2023/04/16 06:38:36;;;;;;;10.73;6.55;;;;;;;;;;4968136;28;20017;-68
2023/04/16 06:41:02;;;;;;;10.20;6.47;;;;;;;;;;4973127;28;20026;-65
2023/04/16 06:43:28;;;;;;;11.45;6.57;;;;;;;;;;4964886;28;20113;-67
2023/04/16 06:45:53;;;;;;;11.80;6.82;;;;;;;;;;4964826;28;20042;-68
2023/04/16 06:48:19;;;;;;;11.13;6.60;;;;;;;;;;4969878;28;20398;-66
2023/04/16 06:50:44;;;;;;;12.30;7.50;;;;;;;;;;4969360;28;20059;-66
2023/04/16 06:53:09;;;;;;;12.95;7.55;;;;;;;;;;4971947;28;20074;-67
2023/04/16 06:55:35;;;;;;;12.13;7.22;;;;;;;;;;4967037;28;20050;-68
2023/04/16 06:58:00;;;;;;;12.03;7.27;;;;;;;;;;4960466;28;20019;-65
2023/04/16 07:00:25;;;;;;;12.95;7.50;;;;;;;;;;4975112;28;20481;-65
2023/04/16 07:02:50;;;;;;;11.57;7.37;;;;;;;;;;4972010;28;20513;-64
2023/04/16 07:05:15;;;;;;;11.98;7.65;;;;;;;;;;4962615;28;20031;-68
2023/04/16 07:07:40;;;;;;;14.07;8.02;;;;;;;;;;4968875;28;20046;-65
2023/04/16 07:10:06;;;;;;;13.50;7.30;;;;;;;;;;4972279;28;20035;-70
2023/04/16 07:12:31;;;;;;;12.35;7.63;;;;;;;;;;4967168;28;20023;-64
2023/04/16 07:14:57;;;;;;;12.13;7.30;;;;;;;;;;4967821;28;20027;-66
2023/04/16 07:17:22;;;;;;;12.25;7.55;;;;;;;;;;4977707;28;20026;-66
2023/04/16 07:19:47;;;;;;;11.88;7.10;;;;;;;;;;4974689;28;20049;-65
2023/04/16 07:22:12;;;;;;;12.43;7.88;;;;;;;;;;4970878;28;20030;-74
2023/04/16 07:24:37;;;;;;;11.60;7.38;;;;;;;;;;4971535;28;20038;-65
2023/04/16 07:27:03;;;;;;;11.15;7.45;;;;;;;;;;4973838;28;20031;-70
2023/04/16 07:29:28;;;;;;;12.27;7.57;;;;;;;;;;4977794;28;20034;-66
2023/04/16 07:31:53;;;;;;;12.52;7.60;;;;;;;;;;4981592;28;20117;-66
2023/04/16 07:34:18;;;;;;;12.83;7.93;;;;;;;;;;4980828;28;20018;-67
2023/04/16 07:36:43;;;;;;;12.57;8.20;;;;;;;;;;4974944;28;20030;-65
2023/04/16 07:39:09;;;;;;;11.52;7.15;;;;;;;;;;4973046;28;20035;-66
2023/04/16 07:41:35;;;;;;;11.77;7.97;;;;;;;;;;4971666;28;20031;-64
2023/04/16 07:44:00;;;;;;;12.00;7.60;;;;;;;;;;4973979;28;20037;-67
2023/04/16 07:46:25;;;;;;;13.40;8.60;;;;;;;;;;4971663;28;20031;-66
2023/04/16 07:48:51;;;;;;;13.47;8.40;;;;;;;;;;4969111;28;20391;-70
2023/04/16 07:51:16;;;;;;;13.40;7.55;;;;;;;;;;4974684;28;20391;-65
2023/04/16 07:53:42;;;;;;;13.85;9.00;;;;;;;;;;4977702;28;20510;-65
2023/04/16 07:56:07;;;;;;;13.18;8.63;;;;;;;;;;4973460;28;20030;-67
2023/04/16 07:58:32;;;;;;;14.93;8.50;;;;;;;;;;4973258;28;20035;-68
2023/04/16 08:00:57;;;;;;;12.02;8.35;;;;;;;;;;4973702;28;20372;-66
2023/04/16 08:03:23;;;;;;;14.33;8.67;;;;;;;;;;4974106;28;20030;-67
2023/04/16 08:05:48;;;;;;;12.98;8.52;;;;;;;;;;4972777;28;20481;-66
2023/04/16 08:08:13;;;;;;;13.80;8.07;;;;;;;;;;4973626;28;20526;-66
2023/04/16 08:10:38;;;;;;;12.60;8.05;;;;;;;;;;4967432;28;20030;-65
2023/04/16 08:13:03;;;;;;;14.07;8.70;;;;;;;;;;4975154;28;20050;-66
2023/04/16 08:15:29;;;;;;;12.73;8.43;;;;;;;;;;4975677;28;20077;-64
2023/04/16 08:17:54;;;;;;;15.70;9.35;;;;;;;;;;4973396;28;20443;-68
2023/04/16 08:20:19;;;;;;;13.37;8.90;;;;;;;;;;4981141;28;20166;-68
2023/04/16 08:22:45;;;;;;;13.93;9.60;;;;;;;;;;4975949;28;20027;-67
2023/04/16 08:25:10;;;;;;;13.00;8.57;;;;;;;;;;4975437;28;20141;-65
2023/04/16 08:27:35;;;;;;;13.32;9.38;;;;;;;;;;4973832;28;20034;-68
2023/04/16 08:30:02;;;;;;;12.48;8.48;;;;;;;;;;4968055;28;20019;-66
2023/04/16 08:32:27;;;;;;;14.43;9.85;;;;;;;;;;4974334;28;20031;-67
2023/04/16 08:34:52;;;;;;;14.93;10.30;;;;;;;;;;4973219;28;20066;-64
2023/04/16 08:37:17;;;;;;;14.80;9.73;;;;;;;;;;4971802;28;20109;-67
2023/04/16 08:39:42;;;;;;;14.82;10.25;;;;;;;;;;4972465;28;20027;-63
2023/04/16 08:42:12;;;;;;;14.77;9.88;;;;;;;;;;4974666;28;20030;-65
2023/04/16 08:44:41;;;;;;;17.48;11.07;;;;;;;;;;4974759;28;20031;-69
2023/04/16 08:47:08;;;;;;;15.80;10.52;;;;;;;;;;4972040;28;20030;-67
2023/04/16 08:49:34;;;;;;;16.17;11.07;;;;;;;;;;4974061;28;20031;-65
2023/04/16 08:52:01;;;;;;;16.27;11.02;;;;;;;;;;4973000;28;20073;-69
2023/04/16 08:54:40;;;;;;;18.10;11.68;;;;;;;;;;4975223;28;20026;-65
2023/04/16 08:57:07;;;;;;;15.80;10.25;;;;;;;;;;4971276;28;20046;-65
2023/04/16 08:59:32;;;;;;;16.38;10.32;;;;;;;;;;4973919;28;20027;-67
2023/04/16 09:01:58;;;;;;;16.42;10.48;;;;;;;;;;4973671;28;20093;-68
2023/04/16 09:04:29;;;;;;;14.43;10.27;;;;;;;;;;4972855;28;20046;-66
2023/04/16 09:06:56;;;;;;;15.05;9.38;;;;;;;;;;4970997;28;20019;-65
2023/04/16 09:09:21;;;;;;;14.23;9.20;;;;;;;;;;4971476;28;20023;-65
2023/04/16 09:11:49;;;;;;;14.30;8.77;;;;;;;;;;4971943;28;20517;-65
2023/04/16 09:14:15;;;;;;;13.20;8.55;;;;;;;;;;4973100;28;20027;-67
2023/04/16 09:16:40;;;;;;;13.02;8.07;;;;;;;;;;4972224;28;20070;-67
2023/04/16 09:19:05;;;;;;;12.13;8.48;;;;;;;;;;4972955;28;20490;-67
2023/04/16 09:21:31;;;;;;;12.73;7.78;;;;;;;;;;4970284;28;20110;-67
2023/04/16 09:23:56;;;;;;;13.18;7.78;;;;;;;;;;4973769;28;20023;-66
2023/04/16 09:26:21;;;;;;;13.57;9.33;;;;;;;;;;4972144;28;20433;-67
2023/04/16 09:28:47;;;;;;;13.00;8.37;;;;;;;;;;4973756;28;20469;-68
2023/04/16 09:31:13;;;;;;;11.70;8.30;;;;;;;;;;4972446;28;20026;-66
2023/04/16 09:33:38;;;;;;;11.40;7.15;;;;;;;;;;4973300;28;20039;-67
2023/04/16 09:36:04;;;;;;;11.83;7.60;;;;;;;;;;4970787;28;20022;-70
2023/04/16 09:38:47;;;;;;;11.68;7.25;;;;;;;;;;4973080;28;20486;-66
2023/04/16 09:41:12;;;;;;;12.82;8.32;;;;;;;;;;4973638;28;20034;-64
2023/04/16 09:43:37;;;;;;;11.73;7.73;;;;;;;;;;4971900;28;20019;-66
2023/04/16 09:46:03;;;;;;;12.13;7.00;;;;;;;;;;4972979;28;20078;-67
2023/04/16 09:48:29;;;;;;;11.25;6.90;;;;;;;;;;4969762;28;20102;-65
2023/04/16 09:50:54;;;;;;;10.48;7.00;;;;;;;;;;4972255;28;20085;-68
2023/04/16 09:53:29;;;;;;;10.17;6.67;;;;;;;;;;4971655;28;20466;-66
2023/04/16 09:55:58;;;;;;;9.57;5.65;;;;;;;;;;4972233;28;20034;-70
2023/04/16 09:58:24;;;;;;;12.13;7.18;;;;;;;;;;4972699;28;20050;-66
2023/04/16 10:00:54;;;;;;;9.80;6.67;;;;;;;;;;4974300;28;20030;-66
2023/04/16 10:03:27;;;;;;;11.07;7.30;;;;;;;;;;4970838;28;20505;-66
2023/04/16 10:05:52;;;;;;;11.23;7.57;;;;;;;;;;4972609;28;20046;-71
2023/04/16 10:08:17;;;;;;;9.27;6.33;;;;;;;;;;4970791;28;20475;-66
2023/04/16 10:10:43;;;;;;;8.57;5.22;;;;;;;;;;4970174;28;20387;-66
2023/04/16 10:13:09;;;;;;;11.60;7.30;;;;;;;;;;4971809;28;20019;-68
2023/04/16 10:15:34;;;;;;;10.38;6.72;;;;;;;;;;4986060;28;20075;-71
2023/04/16 10:18:00;;;;;;;10.30;7.20;;;;;;;;;;4985339;28;20031;-70
2023/04/16 10:20:25;;;;;;;10.20;6.85;;;;;;;;;;4979452;28;20390;-65
2023/04/16 10:22:50;;;;;;;10.70;6.85;;;;;;;;;;4972778;28;20023;-66
2023/04/16 10:25:16;;;;;;;9.25;6.20;;;;;;;;;;4970480;28;20031;-67
2023/04/16 10:27:42;;;;;;;9.00;6.55;;;;;;;;;;4971974;28;20019;-68
2023/04/16 10:30:08;;;;;;;9.75;6.85;;;;;;;;;;4971286;28;20051;-69
2023/04/16 10:32:33;;;;;;;8.95;6.35;;;;;;;;;;4973818;28;20026;-65
2023/04/16 10:34:58;;;;;;;9.30;6.70;;;;;;;;;;4970422;28;20034;-67
2023/04/16 10:37:30;;;;;;;10.17;7.20;;;;;;;;;;4967352;28;20049;-67
2023/04/16 10:39:57;;;;;;;8.32;6.00;;;;;;;;;;4972291;28;20023;-68
2023/04/16 10:42:22;;;;;;;8.43;5.43;;;;;;;;;;4971560;28;20483;-68
2023/04/16 10:44:47;;;;;;;8.77;5.50;;;;;;;;;;4974600;28;20106;-72
2023/04/16 10:47:12;;;;;;;9.73;6.10;;;;;;;;;;4969536;28;20023;-67
2023/04/16 10:49:38;;;;;;;8.93;6.15;;;;;;;;;;4968624;28;20038;-68
2023/04/16 10:52:09;;;;;;;8.50;5.33;;;;;;;;;;4965928;28;20038;-66
2023/04/16 10:54:34;;;;;;;7.82;5.28;;;;;;;;;;4980251;28;20048;-72
2023/04/16 10:57:02;;;;;;;8.65;5.85;;;;;;;;;;4976725;28;20097;-68
2023/04/16 10:59:32;;;;;;;10.30;6.20;;;;;;;;;;4967460;28;20022;-65
2023/04/16 11:01:58;;;;;;;9.90;6.25;;;;;;;;;;4971361;28;20031;-66
2023/04/16 11:04:23;;;;;;;9.48;5.93;;;;;;;;;;4967275;28;20031;-66
2023/04/16 11:07:07;;;;;;;9.97;5.10;;;;;;;;;;4964334;28;20379;-66
2023/04/16 11:09:32;;;;;;;;;;;;;;;;;;4963151;28;21009;-68
2023/04/16 11:11:57;;;;;;;11.05;6.35;;;;;;;;;;4971086;28;19947;-72
2023/04/16 11:14:22;;;;;;;8.40;5.97;;;;;;;;;;4965748;28;20094;-65
2023/04/16 11:16:47;;;;;;;9.57;6.20;;;;;;;;;;4967369;28;20118;-66
2023/04/16 11:19:16;;;;;;;10.02;6.40;;;;;;;;;;4962930;28;20030;-66
2023/04/16 11:21:43;;;;;;;8.68;5.25;;;;;;;;;;4957547;28;20072;-68
2023/04/16 11:24:10;;;;;;;10.25;6.22;;;;;;;;;;4962681;28;20019;-68
2023/04/16 11:26:36;;;;;;;10.27;6.40;;;;;;;;;;4967105;28;20039;-68
2023/04/16 11:29:12;;;;;;;9.40;5.70;;;;;;;;;;4967179;28;20093;-69
2023/04/16 11:31:37;;;;;;;9.00;5.97;;;;;;;;;;4971015;28;20030;-69
2023/04/16 11:34:02;;;;;;;10.07;6.57;;;;;;;;;;4966340;28;20056;-67
2023/04/16 11:36:40;;;;;;;9.40;6.23;;;;;;;;;;4971604;28;20035;-67
2023/04/16 11:39:06;;;;;;;9.48;6.45;;;;;;;;;;4973650;28;20051;-66
2023/04/16 11:41:31;;;;;;;7.97;5.43;;;;;;;;;;4974833;28;20070;-69
2023/04/16 11:43:57;;;;;;;8.70;5.47;;;;;;;;;;4972574;28;20088;-66
2023/04/16 11:46:36;;;;;;;8.80;4.90;;;;;;;;;;4967147;28;20031;-67
2023/04/16 11:49:01;;;;;;;8.15;5.18;;;;;;;;;;4969064;28;20087;-68
2023/04/16 11:51:26;;;;;;;7.05;4.50;;;;;;;;;;4961805;28;20035;-68
2023/04/16 11:53:52;;;;;;;7.20;4.13;;;;;;;;;;4973243;28;20051;-71
2023/04/16 11:56:28;;;;;;;6.13;4.20;;;;;;;;;;4966923;28;20026;-68
2023/04/16 11:59:10;;;;;;;5.93;3.47;;;;;;;;;;4968047;28;20039;-69
2023/04/16 12:01:35;;;;;;;6.05;3.70;;;;;;;;;;4967562;28;20023;-70
2023/04/16 12:04:01;;;;;;;7.05;3.78;;;;;;;;;;4961527;28;20134;-67
2023/04/16 12:06:26;;;;;;;7.20;3.75;;;;;;;;;;4968652;28;20022;-68
2023/04/16 12:08:52;;;;;;;5.63;3.50;;;;;;;;;;4971081;28;20019;-68
2023/04/16 12:11:17;;;;;;;6.00;3.83;;;;;;;;;;4969564;28;20065;-66
2023/04/16 12:13:42;;;;;;;7.57;3.27;;;;;;;;;;4962849;28;20027;-67
2023/04/16 12:16:19;;;;;;;5.67;2.77;;;;;;;;;;4967830;28;20062;-68
2023/04/16 12:18:57;;;;;;;10.05;4.30;;;;;;;;;;4958911;28;20502;-67
2023/04/16 12:21:23;;;;;;;11.05;5.30;;;;;;;;;;4971862;28;20014;-70
2023/04/16 12:23:51;;;;;;;10.70;5.03;;;;;;;;;;4976929;28;20042;-67
2023/04/16 12:26:17;;;;;;;9.07;4.40;;;;;;;;;;4972576;28;20029;-67
2023/04/16 12:28:42;;;;;;;7.03;3.57;;;;;;;;;;4966711;28;20138;-68
2023/04/16 12:31:09;;;;;;;10.55;4.50;;;;;;;;;;4963749;28;20061;-69
2023/04/16 12:33:34;;;;;;;17.40;7.20;;;;;;;;;;4967859;28;20042;-68
2023/04/16 12:36:00;;;;;;;23.83;10.10;;;;;;;;;;4968144;28;20022;-68
2023/04/16 12:38:25;;;;;;;8.05;3.83;;;;;;;;;;4966695;28;20066;-67
2023/04/16 12:40:51;;;;;;;10.67;4.60;;;;;;;;;;4972243;28;20593;-65
2023/04/16 12:43:16;;;;;;;6.88;2.80;;;;;;;;;;4970979;28;20027;-68
2023/04/16 12:45:41;;;;;;;12.40;4.83;;;;;;;;;;4969745;28;20126;-67
2023/04/16 12:48:06;;;;;;;5.53;2.63;;;;;;;;;;4968484;28;20106;-67
2023/04/16 12:50:31;;;;;;;5.40;2.80;;;;;;;;;;4979927;28;20026;-66
2023/04/16 12:52:57;;;;;;;5.72;3.20;;;;;;;;;;4981558;28;20073;-72
2023/04/16 12:55:22;;;;;;;5.20;3.30;;;;;;;;;;4981776;28;20158;-67
2023/04/16 12:57:47;;;;;;;5.32;3.40;;;;;;;;;;4985787;28;20026;-68
2023/04/16 13:00:15;;;;;;;6.93;3.70;;;;;;;;;;4984638;28;20049;-68
2023/04/16 13:02:40;;;;;;;7.65;4.22;;;;;;;;;;4990521;28;20023;-68
2023/04/16 13:05:06;;;;;;;9.60;4.60;;;;;;;;;;4982252;28;20133;-67
2023/04/16 13:07:32;;;;;;;7.43;3.90;;;;;;;;;;4969855;28;20501;-65
2023/04/16 13:09:58;;;;;;;5.55;3.28;;;;;;;;;;4976826;28;20026;-65
2023/04/16 13:12:23;;;;;;;6.22;3.50;;;;;;;;;;4974963;28;20050;-66
2023/04/16 13:14:48;;;;;;;9.68;3.95;;;;;;;;;;4970681;28;20041;-65
2023/04/16 13:17:13;;;;;;;5.53;3.30;;;;;;;;;;4981637;28;20424;-66
2023/04/16 13:19:39;;;;;;;6.20;3.42;;;;;;;;;;4972918;28;20023;-67
2023/04/16 13:22:04;;;;;;;5.57;3.23;;;;;;;;;;4963640;28;20113;-65
2023/04/16 13:24:29;;;;;;;5.30;2.92;;;;;;;;;;4972527;28;20035;-66
2023/04/16 13:26:55;;;;;;;6.15;2.90;;;;;;;;;;4966766;28;20018;-67
2023/04/16 13:29:20;;;;;;;6.00;3.50;;;;;;;;;;4961938;28;20057;-66
2023/04/16 13:31:46;;;;;;;5.50;3.45;;;;;;;;;;4969975;28;20042;-69
2023/04/16 13:34:11;;;;;;;7.20;3.93;;;;;;;;;;4968146;28;20042;-69
2023/04/16 13:36:36;;;;;;;6.30;3.77;;;;;;;;;;4968563;28;20541;-66
2023/04/16 13:39:04;;;;;;;5.50;3.13;;;;;;;;;;4969930;28;20549;-67
2023/04/16 13:41:29;;;;;;;8.20;4.38;;;;;;;;;;4965092;28;20025;-71
2023/04/16 13:43:54;;;;;;;6.95;3.90;;;;;;;;;;4964958;28;20105;-67
2023/04/16 13:46:20;;;;;;;6.55;3.90;;;;;;;;;;4970969;28;20031;-68
2023/04/16 13:48:45;;;;;;;8.25;4.40;;;;;;;;;;4973189;28;20490;-70
2023/04/16 13:51:11;;;;;;;7.20;3.97;;;;;;;;;;4973968;28;20467;-67
2023/04/16 13:53:36;;;;;;;6.35;3.78;;;;;;;;;;4978001;28;20097;-73
2023/04/16 13:56:02;;;;;;;6.03;3.85;;;;;;;;;;4970194;28;20038;-68
2023/04/16 13:58:27;;;;;;;8.63;4.75;;;;;;;;;;4968379;28;20069;-67
2023/04/16 14:00:52;;;;;;;7.90;4.53;;;;;;;;;;4974602;28;20478;-65
2023/04/16 14:03:18;;;;;;;8.73;4.90;;;;;;;;;;4975105;28;20031;-67
2023/04/16 14:05:43;;;;;;;7.47;4.50;;;;;;;;;;4976078;28;20035;-66
2023/04/16 14:08:09;;;;;;;7.60;4.80;;;;;;;;;;4977131;28;20076;-65
2023/04/16 14:10:34;;;;;;;7.45;4.40;;;;;;;;;;4961998;28;20492;-67
2023/04/16 14:12:59;;;;;;;6.80;4.60;;;;;;;;;;4968893;28;20031;-66
2023/04/16 14:15:26;;;;;;;7.87;4.70;;;;;;;;;;4972585;28;20465;-66
2023/04/16 14:17:51;;;;;;;8.35;5.00;;;;;;;;;;4972503;28;20027;-66
2023/04/16 14:20:16;;;;;;;7.03;4.65;;;;;;;;;;4972666;28;20025;-67
2023/04/16 14:22:42;;;;;;;6.68;4.07;;;;;;;;;;4970801;28;20026;-66
2023/04/16 14:25:07;;;;;;;9.05;4.60;;;;;;;;;;4971651;28;20031;-66